createdAt,value
2023-01-07T00:01:44.836Z,68.70
2023-01-07T00:04:16.468Z,67.58
2023-01-07T00:06:46.034Z,67.13
2023-01-07T00:09:19.665Z,66.49
2023-01-07T00:11:47.939Z,67.04
2023-01-07T00:14:16.654Z,66.52
2023-01-07T00:16:45.117Z,66.15
2023-01-07T00:19:17.172Z,66.27
2023-01-07T00:21:45.556Z,66.72
2023-01-07T00:24:14.079Z,66.37
2023-01-07T00:26:42.665Z,66.34
2023-01-07T00:29:11.086Z,65.94
2023-01-07T00:31:41.930Z,66.45
2023-01-07T00:34:11.218Z,66.26
2023-01-07T00:36:45.287Z,66.51
2023-01-07T00:39:20.414Z,66.04
2023-01-07T00:42:08.500Z,65.94
2023-01-07T00:44:38.610Z,66.46
2023-01-07T00:47:07.383Z,66.48
2023-01-07T00:49:35.806Z,65.67
2023-01-07T00:52:04.121Z,65.52
2023-01-07T00:54:32.517Z,65.75
2023-01-07T00:57:00.823Z,65.16
2023-01-07T00:59:29.072Z,65.27
2023-01-07T01:01:57.485Z,65.33
2023-01-07T01:04:25.854Z,65.14
2023-01-07T01:06:54.150Z,65.46
2023-01-07T01:09:23.298Z,65.18
2023-01-07T01:11:51.611Z,65.14
2023-01-07T01:14:20.012Z,65.56
2023-01-07T01:16:48.313Z,64.80
2023-01-07T01:19:17.189Z,64.36
2023-01-07T01:21:45.543Z,64.77
2023-01-07T01:24:13.870Z,64.27
2023-01-07T01:26:42.158Z,63.30
2023-01-07T01:29:10.473Z,63.30
2023-01-07T01:31:38.911Z,63.64
2023-01-07T01:34:07.365Z,63.11
2023-01-07T01:36:35.680Z,63.07
2023-01-07T01:39:04.216Z,62.36
2023-01-07T01:41:33.032Z,61.75
2023-01-07T01:44:01.595Z,61.72
2023-01-07T01:46:29.849Z,61.94
2023-01-07T01:49:27.071Z,62.32
2023-01-07T01:52:01.811Z,59.95
2023-01-07T01:54:31.094Z,60.84
2023-01-07T01:57:03.263Z,61.18
2023-01-07T01:59:35.871Z,60.42
2023-01-07T02:02:05.239Z,60.85
2023-01-07T02:04:35.012Z,59.80
2023-01-07T02:07:17.036Z,59.72
2023-01-07T02:09:45.870Z,58.73
2023-01-07T02:12:47.358Z,59.25
2023-01-07T02:15:30.837Z,59.10
2023-01-07T02:18:17.670Z,59.47
2023-01-07T02:21:00.836Z,58.57
2023-01-07T02:23:37.854Z,57.95
2023-01-07T02:26:09.139Z,58.36
2023-01-07T02:29:12.314Z,58.36
2023-01-07T02:31:43.729Z,56.06
2023-01-07T02:34:34.559Z,57.17
2023-01-07T02:37:20.916Z,56.06
2023-01-07T02:40:15.621Z,57.89
2023-01-07T02:43:05.108Z,57.75
2023-01-07T02:45:45.599Z,57.24
2023-01-07T02:48:16.959Z,56.49
2023-01-07T02:50:45.304Z,55.58
2023-01-07T02:53:18.452Z,54.23
2023-01-07T02:56:25.649Z,55.24
2023-01-07T02:59:11.902Z,55.97
2023-01-07T03:02:07.450Z,54.54
2023-01-07T03:04:57.124Z,53.97
2023-01-07T03:08:06.449Z,54.97
2023-01-07T03:11:00.618Z,54.24
2023-01-07T03:13:59.892Z,52.49
2023-01-07T03:16:40.788Z,54.46
2023-01-07T03:19:17.732Z,52.71
2023-01-07T03:21:49.106Z,53.08
2023-01-07T03:24:18.470Z,52.36
2023-01-07T03:26:53.874Z,51.07
2023-01-07T03:29:23.686Z,51.23
2023-01-07T03:32:11.439Z,53.33
2023-01-07T03:34:45.017Z,52.81
2023-01-07T03:37:21.379Z,52.76
2023-01-07T03:39:51.994Z,53.65
2023-01-07T03:42:43.772Z,53.25
2023-01-07T03:45:16.103Z,51.43
2023-01-07T03:47:49.250Z,51.99
2023-01-07T03:50:19.139Z,52.26
2023-01-07T03:52:49.421Z,52.49
2023-01-07T03:55:18.367Z,50.25
2023-01-07T03:57:47.029Z,51.75
2023-01-07T04:00:16.613Z,50.66
2023-01-07T04:02:45.094Z,51.87
2023-01-07T04:05:13.643Z,49.73
2023-01-07T04:07:42.007Z,48.33
2023-01-07T04:10:11.030Z,51.43
2023-01-07T04:12:39.387Z,49.14
2023-01-07T04:15:08.759Z,49.45
2023-01-07T04:17:37.102Z,48.65
2023-01-07T04:20:08.807Z,50.09
2023-01-07T04:22:37.256Z,48.55
2023-01-07T04:25:05.931Z,49.54
2023-01-07T04:27:34.718Z,50.09
2023-01-07T04:30:03.058Z,48.91
2023-01-07T04:34:59.283Z,49.07
2023-01-07T04:37:27.710Z,47.28
2023-01-07T04:39:56.052Z,47.75
2023-01-07T04:42:24.393Z,48.19
2023-01-07T04:44:53.526Z,48.74
2023-01-07T04:47:21.834Z,48.80
2023-01-07T04:49:50.180Z,49.38
2023-01-07T04:52:18.483Z,45.37
2023-01-07T04:54:46.790Z,45.87
2023-01-07T04:57:15.217Z,47.41
2023-01-07T04:59:43.696Z,45.15
2023-01-07T05:02:12.072Z,46.04
2023-01-07T05:04:40.513Z,45.89
2023-01-07T05:07:08.963Z,44.12
2023-01-07T05:09:37.250Z,45.57
2023-01-07T05:12:06.045Z,45.23
2023-01-07T05:14:34.340Z,44.10
2023-01-07T05:17:02.758Z,42.72
2023-01-07T05:19:31.151Z,44.94
2023-01-07T05:22:01.074Z,43.22
2023-01-07T05:24:29.562Z,45.57
2023-01-07T05:26:58.007Z,44.15
2023-01-07T05:29:26.352Z,42.23
2023-01-07T05:31:54.687Z,44.73
2023-01-07T05:34:22.977Z,42.01
2023-01-07T05:36:51.271Z,42.95
2023-01-07T05:39:19.621Z,43.27
2023-01-07T05:41:47.912Z,42.36
2023-01-07T05:44:16.275Z,41.98
2023-01-07T05:46:45.108Z,42.37
2023-01-07T05:49:13.532Z,40.46
2023-01-07T05:51:41.817Z,42.18
2023-01-07T05:54:10.293Z,41.98
2023-01-07T05:56:38.617Z,42.42
2023-01-07T05:59:06.927Z,43.23
2023-01-07T06:01:35.235Z,42.19
2023-01-07T06:04:03.703Z,40.97
2023-01-07T06:06:32.042Z,42.40
2023-01-07T06:09:00.342Z,41.54
2023-01-07T06:11:28.686Z,38.73
2023-01-07T06:13:56.987Z,39.39
2023-01-07T06:16:25.358Z,41.77
2023-01-07T06:18:53.812Z,40.92
2023-01-07T06:21:22.516Z,41.74
2023-01-07T06:23:50.822Z,41.50
2023-01-07T06:26:19.275Z,40.46
2023-01-07T06:28:47.548Z,43.11
2023-01-07T06:31:15.879Z,40.77
2023-01-07T06:33:44.186Z,41.17
2023-01-07T06:36:12.894Z,41.53
2023-01-07T06:38:42.603Z,42.34
2023-01-07T06:41:10.888Z,41.99
2023-01-07T06:43:39.223Z,40.34
2023-01-07T06:46:07.841Z,42.19
2023-01-07T06:48:36.218Z,40.91
2023-01-07T06:51:04.697Z,41.98
2023-01-07T06:53:33.266Z,41.51
2023-01-07T06:56:01.579Z,41.25
2023-01-07T06:58:29.920Z,39.86
2023-01-07T07:00:58.350Z,38.18
2023-01-07T07:03:26.711Z,39.89
2023-01-07T07:05:55.015Z,40.41
2023-01-07T07:08:23.298Z,39.84
2023-01-07T07:10:51.655Z,39.53
2023-01-07T07:13:20.069Z,40.82
2023-01-07T07:15:48.715Z,41.08
2023-01-07T07:18:20.777Z,39.48
2023-01-07T07:20:50.189Z,37.48
2023-01-07T07:23:19.541Z,38.68
2023-01-07T07:25:47.840Z,39.74
2023-01-07T07:28:16.171Z,40.80
2023-01-07T07:30:47.403Z,39.21
2023-01-07T07:33:19.920Z,39.71
2023-01-07T07:35:49.328Z,40.34
2023-01-07T07:38:19.409Z,39.64
2023-01-07T07:40:48.881Z,39.52
2023-01-07T07:43:17.518Z,39.31
2023-01-07T07:45:45.966Z,40.28
2023-01-07T07:48:16.178Z,39.62
2023-01-07T07:50:44.566Z,40.32
2023-01-07T07:53:13.064Z,40.26
2023-01-07T07:55:42.384Z,41.42
2023-01-07T07:58:10.679Z,39.80
2023-01-07T08:00:39.009Z,40.11
2023-01-07T08:03:08.007Z,39.80
2023-01-07T08:05:36.424Z,39.24
2023-01-07T08:08:04.840Z,39.28
2023-01-07T08:10:33.268Z,40.52
2023-01-07T08:13:01.712Z,39.11
2023-01-07T08:15:30.035Z,40.07
2023-01-07T08:18:00.455Z,40.52
2023-01-07T08:20:29.620Z,40.59
2023-01-07T08:23:02.300Z,40.16
2023-01-07T08:25:32.286Z,39.20
2023-01-07T08:28:01.930Z,39.22
2023-01-07T08:30:31.844Z,39.73
2023-01-07T08:33:01.970Z,40.00
2023-01-07T08:35:30.322Z,38.53
2023-01-07T08:38:07.330Z,39.54
2023-01-07T08:40:36.120Z,39.49
2023-01-07T08:43:07.081Z,40.42
2023-01-07T08:45:35.929Z,39.47
2023-01-07T08:48:04.395Z,39.96
2023-01-07T08:50:34.591Z,38.65
2023-01-07T08:53:03.055Z,40.21
2023-01-07T08:55:31.381Z,39.24
2023-01-07T08:57:59.843Z,39.35
2023-01-07T09:00:28.592Z,39.60
2023-01-07T09:02:56.981Z,39.35
2023-01-07T09:05:25.600Z,40.38
2023-01-07T09:07:54.841Z,40.12
2023-01-07T09:10:23.450Z,39.48
2023-01-07T09:12:52.161Z,40.48
2023-01-07T09:15:20.550Z,39.14
2023-01-07T09:17:50.150Z,40.04
2023-01-07T09:20:18.512Z,40.17
2023-01-07T09:22:47.169Z,39.47
2023-01-07T09:25:15.828Z,41.16
2023-01-07T09:27:44.221Z,40.89
2023-01-07T09:30:13.235Z,41.12
2023-01-07T09:32:42.924Z,40.38
2023-01-07T09:35:12.169Z,40.84
2023-01-07T09:37:40.841Z,40.64
2023-01-07T09:40:15.578Z,41.01
2023-01-07T09:42:58.065Z,41.10
2023-01-07T09:45:34.293Z,40.81
2023-01-07T09:48:07.138Z,40.62
2023-01-07T09:50:59.428Z,41.29
2023-01-07T09:53:36.341Z,40.83
2023-01-07T09:56:12.972Z,41.43
2023-01-07T09:58:47.679Z,41.81
2023-01-07T10:01:38.762Z,42.45
2023-01-07T10:04:25.130Z,42.60
2023-01-07T10:07:15.039Z,44.12
2023-01-07T10:09:52.391Z,44.23
2023-01-07T10:12:23.776Z,43.26
2023-01-07T10:15:21.087Z,43.84
2023-01-07T10:18:05.238Z,43.98
2023-01-07T10:20:55.088Z,44.36
2023-01-07T10:23:34.749Z,44.73
2023-01-07T10:26:04.156Z,45.48
2023-01-07T10:28:52.467Z,45.56
2023-01-07T10:31:25.154Z,46.20
2023-01-07T10:33:53.860Z,46.88
2023-01-07T10:36:54.448Z,47.66
2023-01-07T10:39:44.052Z,48.12
2023-01-07T10:42:37.913Z,49.10
2023-01-07T10:45:19.360Z,48.93
2023-01-07T10:48:02.964Z,48.84
2023-01-07T10:50:43.613Z,49.52
2023-01-07T10:53:30.501Z,49.41
2023-01-07T10:56:21.938Z,49.48
2023-01-07T10:58:51.594Z,49.17
2023-01-07T11:01:28.590Z,48.97
2023-01-07T11:04:00.843Z,49.81
2023-01-07T11:06:42.421Z,49.58
2023-01-07T11:09:22.251Z,49.60
2023-01-07T11:11:53.089Z,49.78
2023-01-07T11:14:25.684Z,49.93
2023-01-07T11:17:25.942Z,50.02
2023-01-07T11:19:54.335Z,50.01
2023-01-07T11:22:28.864Z,50.61
2023-01-07T11:25:00.371Z,50.86
2023-01-07T11:27:33.111Z,51.72
2023-01-07T11:30:21.449Z,51.71
2023-01-07T11:33:08.743Z,51.41
2023-01-07T11:35:37.903Z,51.26
2023-01-07T11:38:27.653Z,51.99
2023-01-07T11:41:01.425Z,53.50
2023-01-07T11:43:48.624Z,54.66
2023-01-07T11:46:20.053Z,56.07
2023-01-07T11:48:58.863Z,55.50
2023-01-07T11:51:27.341Z,55.85
2023-01-07T11:53:58.791Z,57.17
2023-01-07T11:56:35.507Z,58.87
2023-01-07T11:59:13.229Z,59.16
2023-01-07T12:01:50.059Z,60.08
2023-01-07T12:04:34.875Z,61.18
2023-01-07T12:07:07.935Z,61.70
2023-01-07T12:09:39.475Z,61.91
2023-01-07T12:12:34.841Z,61.39
2023-01-07T12:15:20.285Z,61.05
2023-01-07T12:18:39.340Z,60.72
2023-01-07T12:21:19.598Z,60.26
2023-01-07T12:24:15.275Z,60.55
2023-01-07T12:27:03.636Z,59.51
2023-01-07T12:29:56.354Z,60.05
2023-01-07T12:32:48.942Z,60.75
2023-01-07T12:35:53.993Z,63.11
2023-01-07T12:38:28.491Z,64.06
2023-01-07T12:41:03.374Z,63.36
2023-01-07T12:44:05.136Z,62.63
2023-01-07T12:46:44.968Z,63.27
2023-01-07T12:49:35.637Z,62.51
2023-01-07T12:52:04.096Z,62.23
2023-01-07T12:54:48.620Z,61.99
2023-01-07T12:57:26.137Z,63.00
2023-01-07T13:00:10.390Z,63.46
2023-01-07T13:02:42.824Z,62.90
2023-01-07T13:05:24.917Z,62.97
2023-01-07T13:08:04.311Z,62.96
2023-01-07T13:10:59.490Z,61.53
2023-01-07T13:13:45.545Z,60.93
2023-01-07T13:16:14.281Z,59.38
2023-01-07T13:18:43.235Z,59.16
2023-01-07T13:21:16.657Z,59.08
2023-01-07T13:24:12.435Z,59.10
2023-01-07T13:27:04.647Z,59.65
2023-01-07T13:30:08.010Z,59.76
2023-01-07T13:33:03.122Z,60.00
2023-01-07T13:35:49.558Z,60.88
2023-01-07T13:38:43.257Z,60.85
2023-01-07T13:41:24.208Z,60.52
2023-01-07T13:44:01.514Z,60.75
2023-01-07T13:46:36.056Z,61.11
2023-01-07T13:49:04.880Z,60.55
2023-01-07T13:51:38.119Z,60.64
2023-01-07T13:54:11.940Z,60.05
2023-01-07T13:56:41.424Z,60.04
2023-01-07T13:59:47.950Z,60.07
2023-01-07T14:02:20.071Z,60.57
2023-01-07T14:05:05.455Z,60.06
2023-01-07T14:07:52.902Z,60.01
2023-01-07T14:10:31.835Z,60.68
2023-01-07T14:13:39.995Z,60.79
2023-01-07T14:16:20.574Z,61.09
2023-01-07T14:19:00.924Z,60.58
2023-01-07T14:21:56.992Z,60.97
2023-01-07T14:24:35.145Z,60.69
2023-01-07T14:27:32.682Z,61.08
2023-01-07T14:30:19.835Z,60.54
2023-01-07T14:32:58.930Z,61.16
2023-01-07T14:35:42.863Z,60.88
2023-01-07T14:38:42.280Z,60.72
2023-01-07T14:41:12.126Z,60.90
2023-01-07T14:43:43.488Z,60.34
2023-01-07T14:47:03.452Z,59.95
2023-01-07T14:49:49.598Z,59.41
2023-01-07T14:52:18.515Z,60.77
2023-01-07T14:55:26.313Z,59.01
2023-01-07T14:58:25.531Z,59.11
2023-01-07T15:01:38.018Z,59.73
2023-01-07T15:04:36.560Z,58.96
2023-01-07T15:07:06.340Z,59.25
2023-01-07T15:09:58.593Z,58.87
2023-01-07T15:12:49.833Z,58.29
2023-01-07T15:15:42.921Z,57.68
2023-01-07T15:18:12.898Z,57.79
2023-01-07T15:21:01.264Z,57.25
2023-01-07T15:23:29.547Z,57.79
2023-01-07T15:26:02.933Z,57.54
2023-01-07T15:28:52.297Z,57.66
2023-01-07T15:31:20.694Z,57.56
2023-01-07T15:34:01.028Z,57.29
2023-01-07T15:36:31.319Z,58.15
2023-01-07T15:39:04.666Z,57.60
2023-01-07T15:41:41.129Z,57.62
2023-01-07T15:44:19.804Z,57.43
2023-01-07T15:46:48.125Z,57.62
2023-01-07T15:49:18.271Z,57.86
2023-01-07T15:51:49.880Z,57.38
2023-01-07T15:54:23.478Z,57.47
2023-01-07T15:56:55.043Z,58.73
2023-01-07T15:59:34.222Z,57.73
2023-01-07T16:02:28.636Z,57.91
2023-01-07T16:05:01.967Z,57.23
2023-01-07T16:07:36.183Z,57.63
2023-01-07T16:10:05.377Z,56.95
2023-01-07T16:12:33.656Z,57.30
2023-01-07T16:15:04.040Z,57.02
2023-01-07T16:17:33.363Z,56.83
2023-01-07T16:20:12.913Z,56.89
2023-01-07T16:22:42.818Z,57.03
2023-01-07T16:25:18.691Z,56.54
2023-01-07T16:27:47.908Z,56.69
2023-01-07T16:30:17.718Z,56.91
2023-01-07T16:32:47.071Z,56.37
2023-01-07T16:35:21.845Z,56.68
2023-01-07T16:37:50.944Z,56.90
2023-01-07T16:40:24.726Z,56.96
2023-01-07T16:42:53.608Z,57.09
2023-01-07T16:45:34.075Z,56.88
2023-01-07T16:48:20.669Z,57.03
2023-01-07T16:50:50.983Z,57.31
2023-01-07T16:53:31.719Z,57.31
2023-01-07T16:56:12.832Z,57.03
2023-01-07T16:58:54.734Z,57.17
2023-01-07T17:01:34.487Z,57.05
2023-01-07T17:04:08.551Z,57.08
2023-01-07T17:06:43.006Z,57.08
2023-01-07T17:09:20.497Z,56.83
2023-01-07T17:11:53.652Z,56.80
2023-01-07T17:14:38.949Z,56.88
2023-01-07T17:17:19.100Z,55.95
2023-01-07T17:20:10.357Z,56.30
2023-01-07T17:22:39.743Z,56.44
2023-01-07T17:25:14.144Z,56.71
2023-01-07T17:28:07.896Z,56.77
2023-01-07T17:30:38.421Z,56.73
2023-01-07T17:33:06.751Z,56.77
2023-01-07T17:35:35.045Z,56.45
2023-01-07T17:38:03.391Z,56.21
2023-01-07T17:40:31.708Z,56.61
2023-01-07T17:43:18.425Z,56.70
2023-01-07T17:45:46.793Z,57.23
2023-01-07T17:48:15.949Z,57.85
2023-01-07T17:50:44.584Z,57.68
2023-01-07T17:53:43.986Z,58.25
2023-01-07T17:56:12.574Z,59.27
2023-01-07T17:58:45.804Z,57.02
2023-01-07T18:01:18.589Z,57.00
2023-01-07T18:03:47.518Z,57.47
2023-01-07T18:06:22.216Z,57.71
2023-01-07T18:08:51.823Z,59.98
2023-01-07T18:11:44.441Z,58.86
2023-01-07T18:14:16.169Z,59.83
2023-01-07T18:16:44.938Z,59.39
2023-01-07T18:19:16.792Z,60.29
2023-01-07T18:21:45.098Z,59.45
2023-01-07T18:24:19.214Z,59.09
2023-01-07T18:26:48.100Z,59.41
2023-01-07T18:29:16.589Z,59.13
2023-01-07T18:31:46.197Z,59.14
2023-01-07T18:34:16.425Z,58.34
2023-01-07T18:36:44.776Z,58.71
2023-01-07T18:39:19.751Z,60.49
2023-01-07T18:41:51.989Z,60.19
2023-01-07T18:44:22.681Z,60.85
2023-01-07T18:46:51.024Z,59.71
2023-01-07T18:49:19.309Z,58.98
2023-01-07T18:51:48.849Z,58.95
2023-01-07T18:54:17.592Z,58.79
2023-01-07T18:56:46.758Z,58.55
2023-01-07T18:59:15.753Z,59.56
2023-01-07T19:01:44.179Z,59.12
2023-01-07T19:04:12.800Z,59.98
2023-01-07T19:06:41.195Z,60.80
2023-01-07T19:09:09.512Z,60.13
2023-01-07T19:11:39.220Z,60.52
2023-01-07T19:14:07.566Z,60.38
2023-01-07T19:16:37.687Z,61.04
2023-01-07T19:19:07.421Z,60.84
2023-01-07T19:21:35.979Z,60.16
2023-01-07T19:24:05.470Z,61.34
2023-01-07T19:26:34.846Z,60.46
2023-01-07T19:29:04.342Z,60.84
2023-01-07T19:31:32.689Z,63.13
2023-01-07T19:34:01.109Z,62.08
2023-01-07T19:36:29.748Z,61.94
2023-01-07T19:38:58.408Z,60.77
2023-01-07T19:41:26.766Z,61.86
2023-01-07T19:44:00.272Z,62.59
2023-01-07T19:46:29.543Z,63.17
2023-01-07T19:48:57.841Z,61.50
2023-01-07T19:51:26.128Z,62.18
2023-01-07T19:53:54.492Z,61.82
2023-01-07T19:56:22.774Z,62.94
2023-01-07T19:58:56.559Z,62.71
2023-01-07T20:01:27.427Z,61.78
2023-01-07T20:03:57.913Z,61.20
2023-01-07T20:06:31.269Z,61.04
2023-01-07T20:08:59.960Z,61.22
2023-01-07T20:11:28.281Z,60.79
2023-01-07T20:13:56.557Z,61.78
2023-01-07T20:16:25.505Z,62.59
2023-01-07T20:18:55.438Z,62.01
2023-01-07T20:21:26.554Z,61.69
2023-01-07T20:23:55.336Z,62.55
2023-01-07T20:26:26.881Z,63.84
2023-01-07T20:28:55.907Z,65.54
2023-01-07T20:31:25.739Z,64.95
2023-01-07T20:33:56.671Z,62.51
2023-01-07T20:36:28.536Z,62.83
2023-01-07T20:38:57.588Z,62.93
2023-01-07T20:41:29.324Z,63.80
2023-01-07T20:44:00.063Z,61.08
2023-01-07T20:46:30.764Z,60.48
2023-01-07T20:48:59.332Z,62.49
2023-01-07T20:51:28.617Z,62.95
2023-01-07T20:53:56.986Z,64.46
2023-01-07T20:56:27.163Z,65.13
2023-01-07T20:58:58.242Z,64.84
2023-01-07T21:01:26.700Z,65.43
2023-01-07T21:03:55.052Z,65.66
2023-01-07T21:06:23.793Z,66.19
2023-01-07T21:08:52.384Z,63.84
2023-01-07T21:11:22.838Z,64.93
2023-01-07T21:13:52.094Z,65.02
2023-01-07T21:16:20.967Z,66.30
2023-01-07T21:18:49.481Z,66.39
2023-01-07T21:21:22.205Z,66.31
2023-01-07T21:23:51.040Z,66.19
2023-01-07T21:26:20.277Z,65.84
2023-01-07T21:28:48.693Z,66.29
2023-01-07T21:31:18.191Z,66.72
2023-01-07T21:33:46.582Z,65.21
2023-01-07T21:36:20.086Z,67.66
2023-01-07T21:38:52.816Z,69.02
2023-01-07T21:41:21.209Z,68.69
2023-01-07T21:43:49.916Z,69.01
2023-01-07T21:46:18.761Z,69.56
2023-01-07T21:48:47.343Z,70.27
2023-01-07T21:51:21.670Z,70.10
2023-01-07T21:53:50.555Z,69.32
2023-01-07T21:56:19.891Z,69.85
2023-01-07T21:58:49.128Z,69.86
2023-01-07T22:01:19.290Z,70.02
2023-01-07T22:03:50.329Z,70.00
2023-01-07T22:06:26.858Z,70.66
2023-01-07T22:08:57.692Z,70.22
2023-01-07T22:11:26.639Z,70.17
2023-01-07T22:13:57.435Z,70.69
2023-01-07T22:16:27.777Z,70.11
2023-01-07T22:18:58.011Z,71.30
2023-01-07T22:21:26.476Z,72.28
2023-01-07T22:23:54.819Z,71.71
2023-01-07T22:26:23.987Z,70.83
2023-01-07T22:28:59.440Z,71.03
2023-01-07T22:31:34.173Z,70.77
2023-01-07T22:34:02.463Z,71.85
2023-01-07T22:36:34.224Z,71.30
2023-01-07T22:39:11.207Z,69.83
2023-01-07T22:41:39.669Z,69.21
2023-01-07T22:44:13.897Z,69.39
2023-01-07T22:46:46.628Z,69.27
2023-01-07T22:49:15.914Z,68.93
2023-01-07T22:51:48.241Z,68.77
2023-01-07T22:54:17.975Z,69.06
2023-01-07T22:56:46.700Z,69.87
2023-01-07T22:59:15.003Z,69.93
2023-01-07T23:01:43.307Z,69.53
2023-01-07T23:04:11.913Z,70.30
2023-01-07T23:06:40.696Z,71.37
2023-01-07T23:09:09.018Z,71.18
2023-01-07T23:11:49.640Z,70.22
2023-01-07T23:14:20.848Z,70.26
2023-01-07T23:16:49.879Z,68.90
2023-01-07T23:19:19.406Z,69.26
2023-01-07T23:21:53.625Z,68.70
2023-01-07T23:24:22.987Z,69.51
2023-01-07T23:26:53.404Z,69.03
2023-01-07T23:29:22.664Z,68.88
2023-01-07T23:31:51.106Z,69.10
2023-01-07T23:34:19.926Z,68.99
2023-01-07T23:36:48.283Z,68.73
2023-01-07T23:39:16.733Z,69.21
2023-01-07T23:41:45.098Z,70.14
2023-01-07T23:44:13.460Z,71.41
2023-01-07T23:46:41.744Z,72.46
2023-01-07T23:49:10.110Z,72.99
2023-01-07T23:51:38.464Z,71.99
2023-01-07T23:54:06.798Z,72.16
2023-01-07T23:56:35.142Z,71.92
2023-01-07T23:59:03.928Z,71.39
